createdAt,value
2023-06-30T00:00:16.799Z,18.25
2023-06-30T00:02:48.151Z,18.28
2023-06-30T00:05:15.019Z,18.27
2023-06-30T00:07:43.805Z,18.22
2023-06-30T00:10:11.659Z,18.13
2023-06-30T00:12:38.396Z,18.27
2023-06-30T00:15:05.901Z,18.26
2023-06-30T00:17:33.101Z,18.21
2023-06-30T00:20:00.510Z,18.21
2023-06-30T00:22:27.929Z,18.20
2023-06-30T00:24:56.092Z,18.09
2023-06-30T00:27:25.690Z,18.12
2023-06-30T00:29:52.610Z,18.06
2023-06-30T00:32:20.970Z,17.93
2023-06-30T00:34:47.759Z,17.88
2023-06-30T00:37:15.829Z,17.90
2023-06-30T00:39:42.469Z,18.03
2023-06-30T00:42:09.588Z,17.93
2023-06-30T00:44:37.278Z,17.84
2023-06-30T00:47:07.154Z,17.86
2023-06-30T00:49:34.953Z,17.87
2023-06-30T00:52:02.029Z,17.87
2023-06-30T00:54:28.781Z,17.75
2023-06-30T00:56:59.392Z,17.74
2023-06-30T00:59:26.433Z,17.75
2023-06-30T01:02:17.817Z,17.73
2023-06-30T01:05:04.057Z,17.69
2023-06-30T01:07:51.918Z,17.67
2023-06-30T01:10:33.265Z,17.67
2023-06-30T01:13:03.156Z,17.60
2023-06-30T01:15:30.367Z,17.44
2023-06-30T01:18:03.486Z,17.56
2023-06-30T01:20:34.575Z,17.41
2023-06-30T01:23:15.622Z,17.40
2023-06-30T01:25:43.551Z,17.37
2023-06-30T01:28:17.629Z,17.41
2023-06-30T01:30:44.661Z,17.35
2023-06-30T01:33:12.338Z,17.35
2023-06-30T01:35:39.036Z,17.20
2023-06-30T01:38:05.949Z,17.10
2023-06-30T01:40:32.819Z,17.13
2023-06-30T01:43:06.081Z,17.05
2023-06-30T01:45:34.185Z,17.09
2023-06-30T01:48:07.924Z,17.11
2023-06-30T01:50:35.907Z,17.03
2023-06-30T01:53:05.771Z,17.07
2023-06-30T01:55:33.239Z,17.04
2023-06-30T01:58:00.126Z,17.03
2023-06-30T02:00:35.338Z,16.92
2023-06-30T02:03:02.441Z,16.90
2023-06-30T02:05:34.683Z,16.94
2023-06-30T02:08:01.490Z,16.95
2023-06-30T02:10:28.596Z,16.93
2023-06-30T02:12:56.109Z,16.89
2023-06-30T02:15:23.181Z,16.77
2023-06-30T02:17:49.940Z,16.74
2023-06-30T02:20:17.453Z,16.78
2023-06-30T02:22:44.158Z,16.75
2023-06-30T02:25:11.018Z,16.66
2023-06-30T02:27:37.691Z,16.57
2023-06-30T02:30:06.885Z,16.54
2023-06-30T02:32:41.582Z,16.41
2023-06-30T02:35:09.805Z,16.49
2023-06-30T02:37:39.954Z,16.43
2023-06-30T02:40:07.405Z,16.33
2023-06-30T02:42:35.986Z,16.40
2023-06-30T02:45:03.406Z,16.46
2023-06-30T02:47:30.260Z,16.46
2023-06-30T02:49:57.425Z,16.48
2023-06-30T02:52:24.028Z,16.37
2023-06-30T02:54:51.791Z,16.30
2023-06-30T02:57:20.454Z,16.28
2023-06-30T02:59:47.524Z,16.29
2023-06-30T03:02:15.016Z,16.23
2023-06-30T03:04:42.580Z,16.28
2023-06-30T03:07:09.747Z,16.19
2023-06-30T03:09:39.675Z,16.16
2023-06-30T03:12:06.804Z,16.07
2023-06-30T03:14:36.090Z,15.99
2023-06-30T03:17:03.184Z,15.94
2023-06-30T03:19:30.948Z,15.88
2023-06-30T03:22:00.431Z,15.89
2023-06-30T03:24:27.279Z,15.90
2023-06-30T03:26:54.127Z,15.82
2023-06-30T03:29:24.805Z,15.87
2023-06-30T03:31:53.541Z,15.89
2023-06-30T03:34:20.433Z,15.77
2023-06-30T03:36:47.374Z,15.88
2023-06-30T03:39:16.531Z,15.86
2023-06-30T03:41:45.031Z,15.76
2023-06-30T03:44:12.534Z,15.79
2023-06-30T03:46:39.152Z,15.93
2023-06-30T03:49:05.736Z,15.95
2023-06-30T03:51:33.322Z,15.98
2023-06-30T03:54:00.362Z,15.97
2023-06-30T03:56:27.391Z,16.07
2023-06-30T03:58:54.037Z,16.04
2023-06-30T04:01:22.402Z,16.15
2023-06-30T04:03:52.006Z,16.25
2023-06-30T04:06:18.938Z,16.20
2023-06-30T04:08:46.822Z,16.29
2023-06-30T04:11:13.654Z,16.12
2023-06-30T04:13:40.206Z,16.17
2023-06-30T04:16:07.149Z,16.25
2023-06-30T04:18:35.245Z,16.23
2023-06-30T04:21:01.861Z,16.19
2023-06-30T04:23:28.701Z,16.38
2023-06-30T04:25:55.452Z,16.41
2023-06-30T04:28:22.132Z,16.55
2023-06-30T04:30:48.965Z,16.72
2023-06-30T04:33:15.619Z,16.79
2023-06-30T04:35:45.278Z,16.71
2023-06-30T04:38:12.421Z,16.72
2023-06-30T04:40:39.117Z,16.97
2023-06-30T04:43:12.601Z,17.19
2023-06-30T04:45:43.737Z,17.72
2023-06-30T04:48:10.645Z,18.39
2023-06-30T04:50:37.860Z,18.92
2023-06-30T04:53:04.565Z,19.92
2023-06-30T04:55:31.264Z,21.14
2023-06-30T04:57:57.965Z,22.13
2023-06-30T05:00:25.057Z,22.59
2023-06-30T05:02:55.664Z,23.25
2023-06-30T05:05:22.238Z,23.29
2023-06-30T05:07:48.962Z,23.53
2023-06-30T05:10:15.764Z,23.37
2023-06-30T05:12:42.741Z,23.07
2023-06-30T05:15:09.711Z,23.39
2023-06-30T05:17:36.565Z,23.42
2023-06-30T05:20:09.073Z,23.82
2023-06-30T05:22:36.279Z,24.31
2023-06-30T05:25:03.515Z,24.44
2023-06-30T05:27:31.280Z,24.40
2023-06-30T05:29:57.960Z,24.57
2023-06-30T05:32:24.655Z,25.28
2023-06-30T05:34:51.368Z,25.99
2023-06-30T05:37:18.042Z,25.83
2023-06-30T05:39:44.759Z,25.58
2023-06-30T05:42:13.780Z,25.90
2023-06-30T05:44:40.516Z,25.83
2023-06-30T05:47:07.476Z,25.83
2023-06-30T05:49:34.479Z,25.95
2023-06-30T05:52:01.104Z,25.95
2023-06-30T05:54:27.696Z,25.75
2023-06-30T05:56:54.588Z,26.27
2023-06-30T05:59:21.215Z,25.51
2023-06-30T06:01:47.904Z,25.56
2023-06-30T06:04:14.641Z,25.41
2023-06-30T06:06:41.556Z,25.91
2023-06-30T06:09:08.399Z,25.60
2023-06-30T06:11:35.102Z,25.87
2023-06-30T06:14:01.714Z,25.51
2023-06-30T06:16:28.435Z,25.90
2023-06-30T06:18:55.340Z,26.29
2023-06-30T06:21:31.090Z,26.39
2023-06-30T06:23:58.213Z,25.94
2023-06-30T06:26:25.008Z,26.05
2023-06-30T06:28:52.341Z,26.03
2023-06-30T06:31:19.098Z,25.71
2023-06-30T06:33:45.781Z,26.48
2023-06-30T06:36:12.589Z,27.70
2023-06-30T06:38:39.585Z,27.25
2023-06-30T06:41:06.577Z,26.61
2023-06-30T06:43:33.454Z,26.51
2023-06-30T06:46:00.265Z,26.94
2023-06-30T06:48:28.940Z,26.89
2023-06-30T06:51:00.493Z,27.37
2023-06-30T06:53:35.973Z,27.62
2023-06-30T06:56:04.485Z,27.84
2023-06-30T06:58:32.917Z,28.03
2023-06-30T07:01:00.272Z,28.12
2023-06-30T07:03:27.588Z,28.11
2023-06-30T07:05:54.982Z,28.69
2023-06-30T07:08:21.724Z,28.38
2023-06-30T07:10:49.519Z,27.02
2023-06-30T07:13:18.286Z,27.51
2023-06-30T07:15:49.585Z,27.86
2023-06-30T07:18:20.189Z,28.87
2023-06-30T07:20:48.471Z,29.31
2023-06-30T07:23:15.586Z,27.96
2023-06-30T07:25:44.371Z,26.49
2023-06-30T07:28:11.739Z,25.95
2023-06-30T07:30:44.189Z,26.37
2023-06-30T07:33:12.087Z,27.50
2023-06-30T07:35:39.280Z,28.00
2023-06-30T07:38:06.239Z,27.72
2023-06-30T07:40:50.367Z,26.87
2023-06-30T07:43:19.794Z,26.66
2023-06-30T07:46:16.716Z,27.11
2023-06-30T07:51:36.770Z,29.32
2023-06-30T07:57:11.991Z,27.30
2023-06-30T07:59:39.233Z,26.52
2023-06-30T08:08:53.039Z,26.88
2023-06-30T08:11:22.822Z,27.44
2023-06-30T08:14:48.739Z,27.09
2023-06-30T08:20:23.007Z,29.33
2023-06-30T08:23:27.806Z,29.97
2023-06-30T08:35:03.303Z,27.71
2023-06-30T08:40:28.160Z,28.95
2023-06-30T08:46:26.353Z,28.03
2023-06-30T08:52:37.703Z,27.25
2023-06-30T08:55:26.445Z,26.71
2023-06-30T08:58:17.379Z,27.68
2023-06-30T09:01:05.452Z,28.00
2023-06-30T09:03:41.739Z,28.73
2023-06-30T09:06:40.630Z,28.13
2023-06-30T09:12:01.915Z,26.72
2023-06-30T09:17:18.911Z,26.25
2023-06-30T09:19:47.148Z,25.83
2023-06-30T09:22:53.909Z,26.08
2023-06-30T09:25:51.949Z,26.19
2023-06-30T09:28:22.069Z,26.38
2023-06-30T09:30:53.698Z,27.67
2023-06-30T09:33:29.665Z,27.03
2023-06-30T09:36:05.427Z,26.42
2023-06-30T09:42:14.126Z,27.47
2023-06-30T09:57:14.012Z,28.21
2023-06-30T09:59:40.951Z,28.34
2023-06-30T10:06:02.024Z,29.39
2023-06-30T10:08:33.165Z,29.58
2023-06-30T10:14:06.366Z,28.33
2023-06-30T10:16:37.013Z,27.75
2023-06-30T10:19:06.435Z,28.17
2023-06-30T10:24:50.219Z,28.25
2023-06-30T10:27:24.994Z,28.47
2023-06-30T10:30:02.722Z,27.60
2023-06-30T10:32:43.085Z,26.18
2023-06-30T10:35:17.191Z,26.43
2023-06-30T10:37:47.820Z,27.10
2023-06-30T10:47:09.421Z,26.88
2023-06-30T10:50:25.872Z,27.13
2023-06-30T10:52:55.823Z,27.60
2023-06-30T10:55:33.744Z,27.53
2023-06-30T10:58:06.666Z,27.74
2023-06-30T11:01:02.190Z,28.17
2023-06-30T11:04:29.203Z,28.62
2023-06-30T11:07:11.489Z,27.80
2023-06-30T11:13:37.396Z,27.29
2023-06-30T11:16:05.207Z,27.93
2023-06-30T11:22:36.420Z,27.81
2023-06-30T11:25:58.973Z,27.72
2023-06-30T11:28:44.746Z,27.76
2023-06-30T11:31:13.067Z,28.14
2023-06-30T11:33:41.200Z,27.91
2023-06-30T11:36:18.477Z,27.30
2023-06-30T11:42:04.808Z,27.40
2023-06-30T11:50:58.053Z,27.70
2023-06-30T11:53:30.770Z,27.75
2023-06-30T11:56:25.622Z,28.23
2023-06-30T11:58:59.234Z,28.37
2023-06-30T12:08:02.513Z,27.97
2023-06-30T12:10:53.823Z,28.36
2023-06-30T12:19:46.858Z,27.84
2023-06-30T12:22:50.434Z,28.11
2023-06-30T12:38:28.129Z,28.04
2023-06-30T13:00:33.328Z,27.55
2023-06-30T13:03:02.179Z,27.57
2023-06-30T13:05:31.457Z,27.85
2023-06-30T13:07:58.383Z,28.55
2023-06-30T13:10:26.366Z,28.33
2023-06-30T13:12:53.909Z,28.60
2023-06-30T13:15:20.584Z,28.61
2023-06-30T13:17:47.414Z,28.66
2023-06-30T13:20:13.969Z,28.62
2023-06-30T13:22:50.840Z,28.82
2023-06-30T13:25:27.775Z,29.09
2023-06-30T13:27:54.449Z,28.60
2023-06-30T13:30:36.602Z,28.47
2023-06-30T13:33:03.460Z,28.54
2023-06-30T13:46:34.944Z,27.63
2023-06-30T13:49:01.672Z,27.66
2023-06-30T13:51:28.245Z,27.62
2023-06-30T13:53:55.051Z,28.08
2023-06-30T13:56:21.641Z,28.20
2023-06-30T13:58:48.385Z,27.97
2023-06-30T14:01:15.125Z,27.83
2023-06-30T14:03:43.700Z,28.08
2023-06-30T14:06:12.337Z,28.38
2023-06-30T14:08:39.217Z,28.54
2023-06-30T14:11:06.068Z,28.26
2023-06-30T14:13:32.937Z,28.30
2023-06-30T14:15:59.495Z,28.67
2023-06-30T14:18:28.463Z,28.92
2023-06-30T14:20:55.211Z,28.97
2023-06-30T14:23:21.999Z,29.22
2023-06-30T14:25:49.118Z,28.73
2023-06-30T14:28:15.966Z,28.83
2023-06-30T14:30:42.549Z,28.46
2023-06-30T14:33:28.243Z,28.32
2023-06-30T14:37:11.641Z,28.38
2023-06-30T14:39:38.463Z,28.54
2023-06-30T14:42:05.906Z,28.58
2023-06-30T14:45:18.874Z,28.12
2023-06-30T14:47:45.841Z,27.91
2023-06-30T14:50:12.608Z,27.71
2023-06-30T14:52:40.671Z,28.02
2023-06-30T14:55:07.602Z,28.65
2023-06-30T14:57:34.553Z,29.10
2023-06-30T15:00:01.815Z,29.61
2023-06-30T15:02:28.645Z,29.25
2023-06-30T15:04:55.474Z,28.96
2023-06-30T15:07:22.104Z,28.71
2023-06-30T15:09:50.273Z,28.41
2023-06-30T15:12:17.122Z,27.90
2023-06-30T15:14:44.595Z,27.85
2023-06-30T15:17:11.557Z,27.98
2023-06-30T15:19:38.553Z,28.24
2023-06-30T15:22:05.425Z,28.24
2023-06-30T15:24:33.046Z,28.04
2023-06-30T15:26:59.922Z,28.06
2023-06-30T15:29:26.873Z,27.87
2023-06-30T15:31:55.233Z,27.62
2023-06-30T15:34:23.166Z,27.43
2023-06-30T15:36:49.872Z,27.11
2023-06-30T15:39:16.682Z,26.82
2023-06-30T15:42:24.499Z,26.65
2023-06-30T15:45:08.742Z,26.62
2023-06-30T15:47:35.551Z,26.38
2023-06-30T15:50:02.649Z,26.38
2023-06-30T15:52:32.282Z,26.47
2023-06-30T15:55:13.545Z,26.80
2023-06-30T15:57:40.643Z,27.00
2023-06-30T16:00:09.024Z,27.15
2023-06-30T16:02:41.623Z,27.04
2023-06-30T16:05:09.176Z,26.59
2023-06-30T16:07:36.424Z,26.46
2023-06-30T16:10:05.556Z,26.42
2023-06-30T16:12:32.233Z,26.57
2023-06-30T16:15:04.168Z,26.53
2023-06-30T16:18:07.950Z,26.79
2023-06-30T16:20:41.978Z,26.76
2023-06-30T16:23:12.156Z,26.64
2023-06-30T16:25:39.819Z,26.77
2023-06-30T16:28:14.901Z,26.65
2023-06-30T16:30:44.566Z,26.79
2023-06-30T16:33:28.210Z,27.23
2023-06-30T16:35:55.620Z,27.45
2023-06-30T16:38:23.038Z,27.84
2023-06-30T16:40:53.144Z,27.78
2023-06-30T16:43:21.416Z,27.62
2023-06-30T16:45:49.678Z,27.19
2023-06-30T16:48:16.859Z,26.93
2023-06-30T16:59:15.003Z,27.07
2023-06-30T17:06:27.394Z,27.39
2023-06-30T17:08:54.864Z,27.23
2023-06-30T17:11:25.642Z,26.98
2023-06-30T17:13:52.757Z,27.19
2023-06-30T17:22:57.434Z,27.17
2023-06-30T17:25:49.651Z,26.73
2023-06-30T17:35:51.541Z,26.02
2023-06-30T17:46:26.076Z,25.67
2023-06-30T17:49:20.575Z,25.65
2023-06-30T17:51:47.339Z,25.48
2023-06-30T17:55:43.090Z,25.44
2023-06-30T17:58:10.442Z,25.47
2023-06-30T18:00:38.181Z,25.21
2023-06-30T18:03:05.098Z,25.44
2023-06-30T18:05:44.848Z,25.66
2023-06-30T18:08:37.547Z,25.37
2023-06-30T18:11:09.460Z,25.51
2023-06-30T18:13:47.614Z,25.45
2023-06-30T18:16:31.669Z,25.36
2023-06-30T18:23:38.086Z,24.89
2023-06-30T18:26:07.698Z,25.07
2023-06-30T18:28:53.060Z,24.85
2023-06-30T18:31:22.753Z,24.70
2023-06-30T18:33:55.321Z,24.78
2023-06-30T18:36:23.011Z,24.93
2023-06-30T18:38:50.089Z,25.14
2023-06-30T18:41:17.788Z,25.35
2023-06-30T18:43:44.672Z,25.65
2023-06-30T18:46:11.707Z,25.49
2023-06-30T18:48:38.905Z,25.19
2023-06-30T18:51:08.805Z,25.06
2023-06-30T18:53:38.680Z,24.69
2023-06-30T18:56:07.275Z,24.57
2023-06-30T18:58:33.991Z,24.52
2023-06-30T19:01:01.014Z,24.34
2023-06-30T19:03:27.947Z,24.54
2023-06-30T19:06:00.246Z,24.21
2023-06-30T19:08:29.607Z,24.00
2023-06-30T19:10:56.652Z,24.01
2023-06-30T19:13:23.961Z,24.10
2023-06-30T19:15:51.252Z,24.08
2023-06-30T19:21:03.786Z,23.91
2023-06-30T19:23:30.773Z,23.75
2023-06-30T19:26:01.757Z,23.72
2023-06-30T19:28:28.586Z,23.76
2023-06-30T19:31:02.875Z,23.74
2023-06-30T19:33:45.400Z,23.81
2023-06-30T19:36:12.520Z,23.80
2023-06-30T19:38:40.037Z,23.72
2023-06-30T19:41:07.266Z,23.43
2023-06-30T19:43:34.573Z,23.44
2023-06-30T19:46:04.344Z,23.52
2023-06-30T19:48:31.719Z,23.57
2023-06-30T19:50:58.717Z,23.62
2023-06-30T19:53:36.584Z,23.50
2023-06-30T19:56:03.534Z,23.46
2023-06-30T19:58:30.560Z,23.36
2023-06-30T20:00:57.495Z,23.23
2023-06-30T20:03:25.257Z,23.23
2023-06-30T20:05:59.825Z,23.35
2023-06-30T20:08:26.957Z,23.29
2023-06-30T20:10:57.088Z,23.32
2023-06-30T20:13:25.426Z,23.13
2023-06-30T20:15:55.566Z,23.11
2023-06-30T20:18:25.941Z,23.13
2023-06-30T20:21:01.729Z,23.15
2023-06-30T20:23:34.778Z,23.13
2023-06-30T20:26:02.664Z,23.12
2023-06-30T20:28:32.554Z,23.13
2023-06-30T20:30:59.908Z,23.05
2023-06-30T20:33:27.645Z,23.02
2023-06-30T20:35:55.610Z,22.96
2023-06-30T20:38:22.896Z,23.03
2023-06-30T20:40:50.920Z,22.96
2023-06-30T20:43:20.340Z,22.95
2023-06-30T20:45:47.389Z,22.81
2023-06-30T20:48:14.456Z,22.77
2023-06-30T20:50:45.406Z,22.85
2023-06-30T20:53:12.793Z,22.85
2023-06-30T20:55:45.943Z,22.84
2023-06-30T20:58:20.807Z,22.72
2023-06-30T21:00:48.044Z,22.60
2023-06-30T21:03:17.675Z,22.63
2023-06-30T21:05:45.323Z,22.61
2023-06-30T21:08:14.909Z,22.78
2023-06-30T21:10:43.061Z,22.64
2023-06-30T21:13:09.956Z,22.58
2023-06-30T21:15:39.114Z,22.54
2023-06-30T21:18:07.717Z,22.48
2023-06-30T21:20:39.454Z,22.51
2023-06-30T21:23:07.012Z,22.56
2023-06-30T21:25:33.965Z,22.49
2023-06-30T21:28:08.811Z,22.51
2023-06-30T21:30:49.179Z,22.43
2023-06-30T21:33:18.227Z,22.29
2023-06-30T21:35:50.632Z,22.39
2023-06-30T21:38:17.981Z,22.38
2023-06-30T21:40:45.570Z,22.38
2023-06-30T21:43:12.818Z,22.37
2023-06-30T21:45:39.659Z,22.28
2023-06-30T21:48:18.497Z,22.17
2023-06-30T21:50:47.709Z,22.13
2023-06-30T21:53:16.592Z,22.25
2023-06-30T21:55:45.184Z,22.26
2023-06-30T21:58:26.948Z,22.24
2023-06-30T22:00:55.315Z,22.24
2023-06-30T22:03:23.795Z,22.13
2023-06-30T22:05:54.445Z,22.04
2023-06-30T22:08:24.714Z,22.09
2023-06-30T22:10:58.887Z,22.13
2023-06-30T22:13:29.190Z,22.09
2023-06-30T22:15:55.954Z,22.05
2023-06-30T22:18:24.217Z,22.05
2023-06-30T22:20:52.405Z,22.09
2023-06-30T22:23:26.692Z,22.07
2023-06-30T22:25:58.167Z,21.89
2023-06-30T22:28:28.210Z,22.01
2023-06-30T22:30:58.819Z,21.91
2023-06-30T22:33:35.228Z,21.80
2023-06-30T22:36:05.512Z,21.86
2023-06-30T22:39:06.267Z,21.93
2023-06-30T22:41:34.394Z,21.88
2023-06-30T22:44:01.767Z,21.95
2023-06-30T22:46:31.556Z,21.78
2023-06-30T22:49:04.817Z,21.78
2023-06-30T22:51:32.687Z,21.74
2023-06-30T22:54:02.735Z,21.80
2023-06-30T22:56:29.628Z,21.78
2023-06-30T22:58:56.374Z,21.71
2023-06-30T23:01:23.301Z,21.75
2023-06-30T23:03:50.218Z,21.77
2023-06-30T23:06:17.305Z,21.84
2023-06-30T23:08:43.959Z,21.76
2023-06-30T23:11:11.093Z,21.80
2023-06-30T23:13:37.962Z,21.83
2023-06-30T23:16:05.152Z,21.80
2023-06-30T23:18:38.533Z,21.86
2023-06-30T23:21:22.929Z,21.77
2023-06-30T23:23:51.744Z,21.77
2023-06-30T23:26:23.073Z,21.68
2023-06-30T23:28:59.562Z,21.60
2023-06-30T23:31:26.605Z,21.68
2023-06-30T23:33:55.385Z,21.60
2023-06-30T23:36:23.712Z,21.71
2023-06-30T23:38:51.463Z,21.69
2023-06-30T23:41:19.958Z,21.66
2023-06-30T23:43:46.996Z,21.64
2023-06-30T23:46:19.232Z,21.73
2023-06-30T23:48:50.274Z,21.66
2023-06-30T23:51:19.064Z,21.58
2023-06-30T23:53:46.223Z,21.62
2023-06-30T23:56:13.155Z,21.65
2023-06-30T23:58:42.014Z,21.61
